Time;durP1;ratioP1;P1;durP2;ratioP2;P2;SDS_P1;SDS_P2;PMS_P1;PMS_P2;Temp;Humidity;BMP_temperature;BMP_pressure;BME280_temperature;BME280_humidity;BME280_pressure;Samples;Min_cycle;Max_cycle;Signal;HPM_P1;HPM_P2
2021/03/15 00:01:01;;;;;;;1.88;0.90;;;20.60;43.40;;;;;;5091018;28;20052;-56
2021/03/15 00:03:27;;;;;;;2.08;0.95;;;20.60;43.40;;;;;;5090876;28;20024;-52
2021/03/15 00:05:53;;;;;;;1.55;0.60;;;20.60;43.40;;;;;;5075170;28;20511;-53
2021/03/15 00:08:19;;;;;;;1.10;0.70;;;20.50;43.30;;;;;;5070543;28;20039;-53
2021/03/15 00:10:45;;;;;;;0.93;0.65;;;20.50;43.30;;;;;;5073973;28;20040;-55
2021/03/15 00:13:11;;;;;;;1.25;0.65;;;20.50;43.30;;;;;;5090597;28;20016;-54
2021/03/15 00:15:37;;;;;;;1.20;0.70;;;20.60;43.30;;;;;;5090047;28;20036;-53
2021/03/15 00:18:03;;;;;;;1.63;0.70;;;20.60;43.90;;;;;;5088118;28;20047;-56
2021/03/15 00:20:30;;;;;;;1.52;0.70;;;20.50;43.20;;;;;;5090971;28;20074;-52
2021/03/15 00:22:56;;;;;;;0.80;0.60;;;20.50;43.30;;;;;;5083092;28;20094;-53
2021/03/15 00:25:21;;;;;;;0.70;0.50;;;20.60;43.30;;;;;;5070859;28;20588;-53
2021/03/15 00:27:47;;;;;;;1.48;0.55;;;20.50;43.20;;;;;;5072958;28;20039;-54
2021/03/15 00:30:16;;;;;;;0.80;0.70;;;20.60;43.20;;;;;;5070117;28;20049;-53
2021/03/15 00:32:42;;;;;;;0.77;0.45;;;20.60;43.20;;;;;;5070880;28;20115;-54
2021/03/15 00:35:10;;;;;;;1.10;0.50;;;20.60;43.20;;;;;;5079879;28;20035;-53
2021/03/15 00:37:37;;;;;;;1.75;0.60;;;20.60;43.20;;;;;;5090084;28;20040;-54
2021/03/15 00:40:05;;;;;;;1.40;0.55;;;20.60;43.20;;;;;;5088782;28;20040;-55
2021/03/15 00:42:31;;;;;;;1.45;0.82;;;20.60;43.20;;;;;;5070323;28;20040;-54
2021/03/15 00:44:57;;;;;;;1.08;0.60;;;20.50;43.20;;;;;;5076750;28;20036;-53
2021/03/15 00:47:22;;;;;;;1.25;0.57;;;20.50;43.20;;;;;;5071008;28;20054;-54
2021/03/15 00:49:48;;;;;;;1.23;0.52;;;20.60;43.20;;;;;;5071828;28;20040;-52
2021/03/15 00:52:14;;;;;;;1.17;0.50;;;20.60;43.20;;;;;;5074218;28;20465;-49
2021/03/15 00:54:39;;;;;;;0.60;0.47;;;20.50;43.10;;;;;;5093079;28;20047;-52
2021/03/15 00:57:05;;;;;;;1.30;0.57;;;20.60;43.20;;;;;;5092362;28;20439;-56
2021/03/15 00:59:31;;;;;;;0.65;0.52;;;20.60;43.10;;;;;;5085776;28;20075;-55
2021/03/15 01:01:56;;;;;;;0.93;0.50;;;20.50;43.10;;;;;;5094452;28;20495;-52
2021/03/15 01:04:22;;;;;;;1.70;0.65;;;20.60;43.10;;;;;;5077579;28;20028;-53
2021/03/15 01:06:48;;;;;;;0.63;0.40;;;20.60;43.10;;;;;;5092382;28;20575;-50
2021/03/15 01:09:14;;;;;;;2.28;0.60;;;20.60;43.10;;;;;;5086667;28;20052;-54
2021/03/15 01:11:41;;;;;;;0.93;0.50;;;20.60;43.10;;;;;;5088268;28;20036;-49
2021/03/15 01:14:08;;;;;;;1.08;0.45;;;20.60;43.10;;;;;;5093255;28;20043;-49
2021/03/15 01:16:33;;;;;;;1.25;0.50;;;20.60;43.10;;;;;;5094029;28;20028;-55
2021/03/15 01:19:00;;;;;;;1.95;0.70;;;20.60;43.00;;;;;;5077173;28;20036;-51
2021/03/15 01:21:26;;;;;;;1.10;0.60;;;20.60;43.10;;;;;;5074215;28;20391;-51
2021/03/15 01:23:52;;;;;;;2.15;0.80;;;20.60;43.00;;;;;;5080423;28;20032;-54
2021/03/15 01:26:18;;;;;;;1.02;0.63;;;20.60;43.00;;;;;;5083894;28;20465;-46
2021/03/15 01:28:44;;;;;;;2.53;0.82;;;20.60;43.00;;;;;;5074534;28;20070;-53
2021/03/15 01:31:09;;;;;;;1.30;0.90;;;20.60;43.00;;;;;;5089198;28;20036;-54
2021/03/15 01:33:35;;;;;;;0.77;0.50;;;20.60;43.00;;;;;;5092637;28;20040;-54
2021/03/15 01:36:01;;;;;;;1.23;0.47;;;20.60;42.90;;;;;;5074006;28;20031;-55
2021/03/15 01:38:26;;;;;;;1.48;0.43;;;20.60;43.00;;;;;;5073224;28;20035;-54
2021/03/15 01:40:52;;;;;;;0.57;0.40;;;20.60;42.90;;;;;;5089116;28;20182;-53
2021/03/15 01:43:18;;;;;;;1.30;0.63;;;20.60;43.00;;;;;;5086780;28;20437;-52
2021/03/15 01:45:44;;;;;;;0.65;0.50;;;20.60;43.00;;;;;;5073110;28;20031;-54
2021/03/15 01:48:13;;;;;;;0.52;0.38;;;20.60;43.00;;;;;;5073214;28;20020;-55
2021/03/15 01:50:46;;;;;;;2.60;0.55;;;20.60;43.00;;;;;;5073849;28;20024;-53
2021/03/15 01:53:16;;;;;;;1.35;0.50;;;20.60;42.90;;;;;;5090997;28;20558;-55
2021/03/15 01:55:44;;;;;;;1.38;0.70;;;20.60;43.00;;;;;;5093475;28;20032;-51
2021/03/15 01:58:10;;;;;;;0.70;0.40;;;20.60;43.00;;;;;;5084753;28;20920;-55
2021/03/15 02:00:36;;;;;;;1.00;0.50;;;20.60;42.90;;;;;;5073603;28;20554;-55
2021/03/15 02:03:05;;;;;;;1.08;0.68;;;20.60;42.90;;;;;;5073099;28;20032;-50
2021/03/15 02:05:32;;;;;;;1.02;0.70;;;20.60;42.90;;;;;;5090822;28;20103;-53
2021/03/15 02:07:58;;;;;;;1.20;0.50;;;20.60;42.90;;;;;;5089287;28;20483;-54
2021/03/15 02:10:24;;;;;;;2.00;0.70;;;20.60;42.80;;;;;;5079267;28;20055;-53
2021/03/15 02:13:28;;;;;;;1.70;0.70;;;20.60;42.90;;;;;;5092421;28;20125;-52
2021/03/15 02:16:12;;;;;;;1.05;0.80;;;20.60;43.50;;;;;;5087228;28;20170;-52
2021/03/15 02:19:15;;;;;;;1.00;0.47;;;20.60;42.80;;;;;;5081435;28;20020;-51
2021/03/15 02:21:59;;;;;;;1.70;0.60;;;20.60;42.80;;;;;;5073151;28;20071;-54
2021/03/15 02:25:09;;;;;;;0.80;0.30;;;20.60;42.80;;;;;;5072372;28;20658;-52
2021/03/15 02:28:19;;;;;;;2.33;1.13;;;20.60;42.80;;;;;;5073112;28;20428;-51
2021/03/15 02:31:29;;;;;;;1.25;0.40;;;20.60;42.80;;;;;;5049388;28;20074;-54
2021/03/15 02:33:55;;;;;;;0.88;0.50;;;20.60;42.80;;;;;;5065633;28;20496;-52
2021/03/15 02:36:25;;;;;;;1.95;0.65;;;20.60;42.80;;;;;;5087937;28;20028;-52
2021/03/15 02:38:52;;;;;;;1.40;0.60;;;20.60;42.80;;;;;;5073001;28;20098;-53
2021/03/15 02:41:19;;;;;;;1.13;0.40;;;20.60;42.80;;;;;;5080784;28;20400;-55
2021/03/15 02:43:50;;;;;;;1.38;0.60;;;20.60;42.80;;;;;;5071675;28;20508;-54
2021/03/15 02:46:21;;;;;;;0.93;0.45;;;20.60;42.90;;;;;;5075451;28;20416;-51
2021/03/15 02:48:51;;;;;;;0.85;0.57;;;20.60;42.80;;;;;;5090977;28;20063;-52
2021/03/15 02:51:21;;;;;;;1.10;0.40;;;20.60;42.80;;;;;;5090076;28;20481;-54
2021/03/15 02:53:47;;;;;;;1.80;0.50;;;20.60;42.80;;;;;;5080703;28;20028;-55
2021/03/15 02:56:19;;;;;;;1.65;0.57;;;20.70;42.80;;;;;;5073217;28;20107;-49
2021/03/15 02:58:47;;;;;;;1.77;0.50;;;20.60;42.70;;;;;;5072598;28;20603;-56
2021/03/15 03:01:17;;;;;;;1.17;0.65;;;20.60;42.70;;;;;;5072801;28;20466;-55
2021/03/15 03:03:44;;;;;;;0.93;0.60;;;20.60;42.80;;;;;;5072639;28;20028;-55
2021/03/15 03:06:11;;;;;;;1.63;0.60;;;20.60;42.70;;;;;;5073840;28;20405;-54
2021/03/15 03:08:39;;;;;;;0.88;0.60;;;20.60;42.70;;;;;;5075322;28;20473;-55
2021/03/15 03:11:05;;;;;;;0.60;0.40;;;20.60;42.70;;;;;;5090523;28;20042;-53
2021/03/15 03:13:33;;;;;;;2.55;0.60;;;20.60;42.70;;;;;;5080320;28;20025;-52
2021/03/15 03:16:00;;;;;;;1.77;0.47;;;20.60;42.70;;;;;;5072185;28;20068;-54
2021/03/15 03:18:27;;;;;;;1.88;0.90;;;20.60;42.70;;;;;;5087216;28;20606;-53
2021/03/15 03:20:55;;;;;;;1.20;0.65;;;20.60;42.80;;;;;;5090659;28;20036;-52
2021/03/15 03:23:26;;;;;;;1.83;0.57;;;20.60;42.70;;;;;;5083973;28;20016;-54
2021/03/15 03:25:56;;;;;;;0.90;0.70;;;20.60;42.70;;;;;;5082566;28;20037;-55
2021/03/15 03:28:24;;;;;;;2.25;0.70;;;20.60;42.70;;;;;;5091027;28;20079;-55
2021/03/15 03:30:51;;;;;;;1.67;0.40;;;20.60;42.80;;;;;;5073649;28;20036;-54
2021/03/15 03:33:17;;;;;;;1.17;0.50;;;20.60;42.70;;;;;;5071108;28;20111;-55
2021/03/15 03:35:44;;;;;;;1.55;0.50;;;20.60;42.80;;;;;;5079350;28;20028;-53
2021/03/15 03:38:10;;;;;;;1.33;0.50;;;20.70;42.80;;;;;;5090608;28;20043;-56
2021/03/15 03:40:36;;;;;;;2.33;0.40;;;20.60;42.70;;;;;;5089437;28;20118;-56
2021/03/15 03:43:03;;;;;;;1.83;0.55;;;20.60;42.80;;;;;;5090718;28;20459;-55
2021/03/15 03:45:29;;;;;;;1.60;0.38;;;20.70;42.80;;;;;;5076105;28;20024;-56
2021/03/15 03:47:56;;;;;;;1.05;0.50;;;20.70;42.70;;;;;;5077078;28;20032;-55
2021/03/15 03:50:24;;;;;;;1.92;0.50;;;20.60;42.80;;;;;;5088224;28;20434;-53
2021/03/15 03:53:09;;;;;;;1.30;0.65;;;20.60;42.70;;;;;;5082141;28;20114;-54
2021/03/15 03:56:02;;;;;;;1.52;0.40;;;20.60;42.70;;;;;;5091153;28;20031;-53
2021/03/15 03:58:31;;;;;;;2.50;0.90;;;20.60;42.70;;;;;;5079242;28;20626;-53
2021/03/15 04:00:58;;;;;;;1.20;0.50;;;20.60;42.70;;;;;;5089028;28;20055;-56
2021/03/15 04:03:28;;;;;;;1.27;0.57;;;20.60;42.70;;;;;;5072273;28;20033;-55
2021/03/15 04:05:59;;;;;;;1.50;0.60;;;20.60;42.70;;;;;;5072797;28;20465;-53
2021/03/15 04:08:29;;;;;;;1.67;0.68;;;20.60;42.70;;;;;;5087532;28;20028;-53
2021/03/15 04:10:57;;;;;;;1.75;0.63;;;20.60;42.70;;;;;;5070501;28;20473;-55
2021/03/15 04:13:28;;;;;;;1.30;0.85;;;20.60;42.70;;;;;;5089498;28;20031;-53
2021/03/15 04:15:54;;;;;;;1.13;0.60;;;20.60;42.70;;;;;;5091807;28;20081;-55
2021/03/15 04:18:24;;;;;;;1.27;0.50;;;20.70;42.70;;;;;;5088731;28;20016;-53
2021/03/15 04:20:56;;;;;;;1.00;0.50;;;20.60;42.70;;;;;;5071468;28;20086;-50
2021/03/15 04:23:27;;;;;;;1.05;0.50;;;20.60;42.60;;;;;;5070491;28;20098;-56
2021/03/15 04:25:55;;;;;;;1.83;0.60;;;20.60;42.70;;;;;;5081167;28;20056;-54
2021/03/15 04:28:22;;;;;;;1.27;0.52;;;20.60;42.70;;;;;;5090667;28;20409;-52
2021/03/15 04:30:48;;;;;;;2.92;0.88;;;20.60;42.60;;;;;;5084270;28;20036;-50
2021/03/15 04:33:13;;;;;;;1.13;0.50;;;20.60;42.70;;;;;;5082060;28;20073;-54
2021/03/15 04:35:43;;;;;;;2.10;0.60;;;20.60;42.70;;;;;;5091999;28;20060;-53
2021/03/15 04:38:10;;;;;;;1.38;0.57;;;20.60;42.70;;;;;;5093437;28;20024;-56
2021/03/15 04:40:38;;;;;;;0.73;0.50;;;20.60;42.60;;;;;;5075322;28;20029;-53
2021/03/15 04:43:04;;;;;;;1.17;0.52;;;20.60;42.60;;;;;;5076242;28;20051;-54
2021/03/15 04:45:34;;;;;;;0.65;0.40;;;20.60;42.60;;;;;;5077130;28;20027;-54
2021/03/15 04:48:05;;;;;;;0.60;0.40;;;20.60;42.70;;;;;;5075292;28;20025;-54
2021/03/15 04:50:32;;;;;;;0.82;0.40;;;20.60;42.60;;;;;;5074137;28;20066;-51
2021/03/15 04:53:01;;;;;;;1.48;0.57;;;20.60;42.60;;;;;;5086861;28;20028;-53
2021/03/15 04:55:26;;;;;;;0.70;0.43;;;20.60;42.60;;;;;;5093253;28;20411;-50
2021/03/15 04:57:57;;;;;;;1.30;0.60;;;20.70;42.70;;;;;;5092612;28;20043;-54
2021/03/15 05:00:24;;;;;;;2.17;0.70;;;20.60;42.60;;;;;;5088026;28;20087;-54
2021/03/15 05:02:51;;;;;;;1.67;0.40;;;20.60;42.60;;;;;;5094298;28;20770;-56
2021/03/15 05:05:17;;;;;;;1.00;0.55;;;20.60;42.60;;;;;;5084766;28;20069;-52
2021/03/15 05:07:46;;;;;;;1.52;0.50;;;20.60;42.60;;;;;;5094532;28;20134;-55
2021/03/15 05:10:14;;;;;;;1.42;0.43;;;20.60;42.70;;;;;;5078147;28;20023;-56
2021/03/15 05:12:41;;;;;;;0.98;0.47;;;20.70;42.70;;;;;;5091541;28;20032;-56
2021/03/15 05:15:08;;;;;;;0.50;0.40;;;20.70;42.70;;;;;;5094496;28;20051;-54
2021/03/15 05:17:38;;;;;;;1.17;0.40;;;20.60;42.60;;;;;;5083421;28;20798;-54
2021/03/15 05:20:08;;;;;;;0.60;0.40;;;20.70;42.70;;;;;;5093958;28;20056;-55
2021/03/15 05:22:36;;;;;;;1.52;0.43;;;20.60;42.60;;;;;;5088478;28;20049;-52
2021/03/15 05:25:04;;;;;;;1.27;0.60;;;20.60;42.60;;;;;;5089484;28;20036;-55
2021/03/15 05:27:30;;;;;;;3.85;0.30;;;20.70;42.70;;;;;;5073560;28;20029;-54
2021/03/15 05:30:00;;;;;;;0.88;0.73;;;20.70;42.70;;;;;;5080767;28;20107;-55
2021/03/15 05:32:27;;;;;;;2.05;0.50;;;20.60;42.70;;;;;;5086079;28;20047;-53
2021/03/15 05:34:55;;;;;;;1.05;0.60;;;20.70;42.80;;;;;;5085694;28;20029;-53
2021/03/15 05:37:22;;;;;;;0.50;0.40;;;20.60;42.70;;;;;;5089076;28;20036;-55
2021/03/15 05:39:48;;;;;;;2.83;0.47;;;20.60;42.70;;;;;;5074007;28;20362;-55
2021/03/15 05:42:13;;;;;;;1.75;0.70;;;20.60;42.70;;;;;;5081340;28;20043;-55
2021/03/15 05:44:57;;;;;;;1.08;0.43;;;20.60;42.70;;;;;;5085800;28;20035;-48
2021/03/15 05:47:52;;;;;;;1.20;0.60;;;20.60;42.70;;;;;;5080861;28;20042;-55
2021/03/15 05:50:39;;;;;;;1.83;0.40;;;20.70;42.80;;;;;;5089849;28;20062;-54
2021/03/15 05:53:14;;;;;;;1.92;0.50;;;20.70;42.80;;;;;;5085138;28;20178;-55
2021/03/15 05:55:58;;;;;;;1.23;0.40;;;20.60;42.70;;;;;;5076895;28;20036;-57
2021/03/15 05:58:30;;;;;;;0.52;0.40;;;20.60;42.70;;;;;;5077057;28;20036;-53
2021/03/15 06:01:23;;;;;;;0.43;0.30;;;20.60;42.80;;;;;;5084074;28;20056;-54
2021/03/15 06:04:10;;;;;;;1.33;0.47;;;20.70;42.80;;;;;;5092991;28;20036;-55
2021/03/15 06:06:38;;;;;;;1.08;0.55;;;20.70;42.70;;;;;;5079048;28;20032;-57
2021/03/15 06:09:05;;;;;;;0.80;0.50;;;20.70;42.80;;;;;;5082194;28;20073;-54
2021/03/15 06:11:45;;;;;;;1.00;0.43;;;20.70;42.80;;;;;;5081805;28;20081;-55
2021/03/15 06:14:13;;;;;;;0.82;0.40;;;20.70;42.80;;;;;;5084781;28;20173;-56
2021/03/15 06:16:40;;;;;;;2.28;0.50;;;20.70;42.80;;;;;;5084480;28;20061;-55
2021/03/15 06:19:06;;;;;;;1.35;0.40;;;20.70;42.80;;;;;;5083583;28;20184;-55
2021/03/15 06:21:32;;;;;;;1.02;0.50;;;20.70;43.50;;;;;;5076827;28;20067;-55
2021/03/15 06:23:59;;;;;;;1.30;0.55;;;20.60;42.70;;;;;;5085682;28;20166;-54
2021/03/15 06:26:26;;;;;;;1.45;0.43;;;20.70;42.80;;;;;;5073780;28;20032;-56
2021/03/15 06:28:52;;;;;;;0.90;0.50;;;20.70;42.80;;;;;;5075620;28;20040;-54
2021/03/15 06:31:18;;;;;;;0.85;0.50;;;20.60;42.70;;;;;;5083639;28;20031;-54
2021/03/15 06:33:46;;;;;;;0.47;0.40;;;20.70;42.80;;;;;;5092920;28;20024;-53
2021/03/15 06:36:13;;;;;;;1.08;0.47;;;20.70;42.80;;;;;;5083540;28;20029;-56
2021/03/15 06:38:41;;;;;;;0.45;0.30;;;20.70;42.90;;;;;;5072937;28;20111;-54
2021/03/15 06:41:07;;;;;;;1.17;0.52;;;20.70;42.90;;;;;;5077486;28;20032;-54
2021/03/15 06:43:33;;;;;;;0.80;0.50;;;20.70;42.90;;;;;;5076781;28;20036;-53
2021/03/15 06:46:00;;;;;;;2.30;0.70;;;20.70;42.90;;;;;;5081999;28;20028;-54
2021/03/15 06:48:26;;;;;;;0.73;0.40;;;20.70;42.90;;;;;;5071440;28;20028;-54
2021/03/15 06:50:54;;;;;;;1.15;0.50;;;20.70;42.90;;;;;;5072888;28;20016;-53
2021/03/15 06:53:20;;;;;;;2.40;0.70;;;20.70;43.90;;;;;;5073209;28;20033;-55
2021/03/15 06:55:53;;;;;;;0.80;0.43;;;20.70;43.00;;;;;;5067289;28;20028;-54
2021/03/15 06:58:19;;;;;;;1.40;0.65;;;20.80;43.60;;;;;;5082325;28;20484;-55
2021/03/15 07:00:46;;;;;;;1.75;1.05;;;20.80;43.70;;;;;;5084423;28;20127;-58
2021/03/15 07:03:21;;;;;;;4.88;0.80;;;20.80;43.90;;;;;;5073000;28;20115;-56
2021/03/15 07:05:57;;;;;;;6.72;0.80;;;20.80;44.00;;;;;;5078346;28;20081;-55
2021/03/15 07:08:24;;;;;;;7.18;0.80;;;20.90;44.80;;;;;;5073249;28;20036;-52
2021/03/15 07:10:50;;;;;;;3.83;0.95;;;20.90;45.80;;;;;;5087405;28;20028;-58
2021/03/15 07:13:19;;;;;;;5.75;0.88;;;20.90;44.90;;;;;;5071150;28;20052;-56
2021/03/15 07:15:47;;;;;;;4.95;1.02;;;20.90;45.00;;;;;;5080504;28;20024;-52
2021/03/15 07:18:17;;;;;;;4.20;0.82;;;20.90;45.00;;;;;;5086348;28;20103;-53
2021/03/15 07:21:10;;;;;;;5.93;1.00;;;20.90;45.00;;;;;;5091475;28;20032;-54
2021/03/15 07:23:54;;;;;;;5.88;0.90;;;20.90;45.00;;;;;;5078001;28;20037;-49
2021/03/15 07:26:23;;;;;;;1.17;0.63;;;20.80;44.90;;;;;;5077175;28;20020;-51
2021/03/15 07:28:50;;;;;;;2.63;0.40;;;19.00;38.10;;;;;;5088876;28;20032;-53
2021/03/15 07:31:23;;;;;;;1.42;0.55;;;17.10;41.90;;;;;;5070150;28;20036;-55
2021/03/15 07:33:55;;;;;;;1.10;0.60;;;16.40;43.10;;;;;;5079752;28;20028;-51
2021/03/15 07:36:27;;;;;;;0.83;0.40;;;15.80;43.30;;;;;;5084213;28;20024;-50
2021/03/15 07:38:55;;;;;;;0.50;0.40;;;15.60;44.10;;;;;;5091452;28;20584;-57
2021/03/15 07:41:22;;;;;;;0.93;0.50;;;15.30;44.50;;;;;;5070891;28;20028;-55
2021/03/15 07:43:49;;;;;;;0.30;0.30;;;15.10;45.90;;;;;;5071488;28;20058;-52
2021/03/15 07:46:26;;;;;;;0.93;0.47;;;14.90;45.70;;;;;;5087049;28;20439;-54
2021/03/15 07:48:53;;;;;;;1.75;0.63;;;14.80;46.20;;;;;;5090845;28;20035;-54
2021/03/15 07:51:30;;;;;;;2.50;0.50;;;15.30;45.40;;;;;;5081613;28;20052;-51
2021/03/15 07:54:02;;;;;;;3.05;0.50;;;16.50;43.10;;;;;;5078954;28;20421;-55
2021/03/15 07:56:27;;;;;;;;;;;17.30;41.60;;;;;;5085748;28;20033;-55
2021/03/15 07:58:54;;;;;;;0.75;0.43;;;17.70;40.90;;;;;;5088208;28;19912;-53
2021/03/15 08:01:20;;;;;;;0.68;0.40;;;18.20;41.60;;;;;;5085959;28;20435;-48
2021/03/15 08:03:46;;;;;;;1.40;0.40;;;18.60;41.60;;;;;;5083173;28;20035;-55
2021/03/15 08:06:12;;;;;;;4.35;0.40;;;18.90;41.40;;;;;;5085398;28;20036;-51
2021/03/15 08:08:39;;;;;;;1.10;0.47;;;19.00;41.20;;;;;;5067973;28;20743;-50
2021/03/15 08:11:08;;;;;;;1.80;0.40;;;19.10;41.50;;;;;;5071601;28;20032;-50
2021/03/15 08:13:46;;;;;;;0.70;0.40;;;19.20;41.40;;;;;;5088309;28;20043;-52
2021/03/15 08:16:22;;;;;;;2.00;0.38;;;19.30;41.40;;;;;;5085079;28;20029;-52
2021/03/15 08:18:50;;;;;;;1.75;0.47;;;19.40;41.40;;;;;;5072549;28;20066;-52
2021/03/15 08:21:28;;;;;;;0.90;0.30;;;19.40;41.30;;;;;;5074306;28;20063;-56
2021/03/15 08:23:56;;;;;;;0.73;0.35;;;19.50;41.30;;;;;;5075793;28;20029;-55
2021/03/15 08:26:23;;;;;;;1.75;0.50;;;19.60;41.30;;;;;;5077393;28;20446;-53
2021/03/15 08:28:53;;;;;;;1.30;0.30;;;19.60;41.30;;;;;;5078413;28;20040;-55
2021/03/15 08:31:29;;;;;;;0.63;0.32;;;19.60;41.10;;;;;;5070217;28;20533;-54
2021/03/15 08:33:56;;;;;;;0.40;0.22;;;19.70;41.10;;;;;;5080082;28;20082;-53
2021/03/15 08:36:21;;;;;;;1.17;0.40;;;19.70;41.10;;;;;;5085156;28;20063;-53
2021/03/15 08:38:48;;;;;;;0.82;0.30;;;19.80;41.10;;;;;;5070570;28;20064;-55
2021/03/15 08:41:27;;;;;;;0.40;0.30;;;19.80;41.10;;;;;;5086990;28;20036;-55
2021/03/15 08:43:53;;;;;;;1.35;0.47;;;19.90;40.90;;;;;;5081993;28;20384;-53
2021/03/15 08:46:25;;;;;;;2.42;0.40;;;19.90;41.00;;;;;;5078799;28;20047;-53
2021/03/15 08:48:58;;;;;;;0.30;0.20;;;19.90;41.00;;;;;;5069688;28;20032;-53
2021/03/15 08:51:32;;;;;;;0.43;0.20;;;20.00;41.10;;;;;;5086607;28;20040;-52
2021/03/15 08:53:59;;;;;;;0.20;0.20;;;20.00;41.00;;;;;;5088264;28;20033;-50
2021/03/15 08:56:28;;;;;;;0.82;0.47;;;20.00;41.00;;;;;;5075338;28;20025;-54
2021/03/15 08:58:54;;;;;;;1.02;0.30;;;20.00;40.90;;;;;;5072191;28;20036;-51
2021/03/15 09:01:24;;;;;;;0.47;0.30;;;20.10;41.00;;;;;;5077617;28;20036;-53
2021/03/15 09:04:00;;;;;;;0.45;0.30;;;20.10;40.90;;;;;;5074211;28;20031;-54
2021/03/15 09:06:39;;;;;;;0.70;0.40;;;20.10;40.90;;;;;;5071973;28;20528;-51
2021/03/15 09:09:10;;;;;;;0.43;0.30;;;20.10;40.90;;;;;;5088611;28;20035;-55
2021/03/15 09:11:38;;;;;;;0.53;0.30;;;20.10;40.80;;;;;;5072266;28;20037;-54
2021/03/15 09:14:25;;;;;;;0.90;0.30;;;20.20;40.80;;;;;;5080440;28;20080;-53
2021/03/15 09:16:53;;;;;;;0.30;0.22;;;20.20;40.90;;;;;;5085310;28;20412;-54
2021/03/15 09:19:23;;;;;;;0.30;0.28;;;20.20;40.80;;;;;;5093224;28;20397;-56
2021/03/15 09:21:58;;;;;;;1.00;0.35;;;20.20;40.80;;;;;;5076090;28;20075;-54
2021/03/15 09:24:50;;;;;;;0.43;0.28;;;20.30;41.00;;;;;;5073202;28;20416;-54
2021/03/15 09:27:28;;;;;;;0.80;0.20;;;20.30;40.90;;;;;;5087467;28;20063;-54
2021/03/15 09:29:57;;;;;;;0.50;0.30;;;20.30;40.80;;;;;;5087345;28;20027;-53
2021/03/15 09:32:48;;;;;;;0.65;0.40;;;20.30;40.70;;;;;;5091766;28;20032;-53
2021/03/15 09:35:29;;;;;;;0.30;0.30;;;20.30;40.80;;;;;;5068793;28;20064;-54
2021/03/15 09:38:06;;;;;;;0.77;0.30;;;20.30;40.80;;;;;;5073981;28;20174;-51
2021/03/15 09:40:37;;;;;;;0.95;0.32;;;20.40;40.90;;;;;;5077947;28;20030;-55
2021/03/15 09:43:04;;;;;;;0.93;0.22;;;20.40;40.80;;;;;;5083261;28;20039;-55
2021/03/15 09:45:36;;;;;;;2.45;0.63;;;20.40;41.40;;;;;;5078323;28;20484;-52
2021/03/15 09:48:18;;;;;;;1.50;0.40;;;20.50;40.80;;;;;;5077977;28;20036;-53
2021/03/15 09:51:00;;;;;;;1.52;0.50;;;20.50;40.90;;;;;;5083148;28;20528;-54
2021/03/15 09:53:27;;;;;;;0.35;0.30;;;20.50;41.00;;;;;;5075300;28;20031;-51
2021/03/15 09:56:10;;;;;;;0.25;0.25;;;20.50;40.90;;;;;;5077976;28;20024;-55
2021/03/15 09:58:37;;;;;;;0.47;0.22;;;20.50;41.00;;;;;;5085870;28;20036;-53
2021/03/15 10:01:13;;;;;;;0.28;0.20;;;20.50;40.80;;;;;;5092264;28;20047;-54
2021/03/15 10:03:39;;;;;;;0.40;0.30;;;20.50;41.00;;;;;;5086187;28;20178;-53
2021/03/15 10:06:05;;;;;;;1.92;0.47;;;20.50;41.00;;;;;;5087992;28;20468;-50
2021/03/15 10:08:31;;;;;;;0.52;0.30;;;20.50;41.00;;;;;;5089660;28;20409;-56
2021/03/15 10:11:00;;;;;;;1.63;0.30;;;20.50;41.10;;;;;;5073628;28;20025;-53
2021/03/15 10:13:26;;;;;;;0.43;0.20;;;20.50;41.10;;;;;;5088612;28;20024;-55
2021/03/15 10:15:52;;;;;;;0.32;0.20;;;20.50;41.10;;;;;;5080984;28;20025;-52
2021/03/15 10:18:19;;;;;;;0.57;0.40;;;20.50;41.20;;;;;;5079777;28;20024;-55
2021/03/15 10:20:46;;;;;;;0.28;0.20;;;20.50;41.20;;;;;;5090811;28;20032;-54
2021/03/15 10:23:13;;;;;;;0.40;0.32;;;20.50;41.30;;;;;;5082564;28;20032;-54
2021/03/15 10:25:41;;;;;;;0.32;0.32;;;20.50;41.20;;;;;;5091392;28;20081;-55
2021/03/15 10:28:07;;;;;;;0.40;0.35;;;20.50;41.40;;;;;;5080834;28;20366;-52
2021/03/15 10:30:35;;;;;;;0.55;0.30;;;20.60;41.30;;;;;;5086333;28;20020;-54
2021/03/15 10:33:02;;;;;;;0.30;0.20;;;20.60;41.30;;;;;;5091037;28;20069;-52
2021/03/15 10:35:32;;;;;;;0.70;0.40;;;20.50;41.30;;;;;;5075966;28;20044;-55
2021/03/15 10:38:01;;;;;;;0.65;0.30;;;20.50;41.50;;;;;;5072891;28;20043;-54
2021/03/15 10:40:28;;;;;;;0.47;0.35;;;20.60;41.50;;;;;;5082868;28;20028;-52
2021/03/15 10:42:55;;;;;;;0.38;0.30;;;20.60;41.50;;;;;;5077696;28;20036;-53
2021/03/15 10:45:25;;;;;;;0.30;0.30;;;20.60;41.40;;;;;;5075591;28;20423;-55
2021/03/15 10:47:58;;;;;;;0.50;0.38;;;20.60;41.40;;;;;;5081084;28;20024;-53
2021/03/15 10:50:32;;;;;;;0.65;0.40;;;20.60;41.50;;;;;;5091267;28;20047;-53
2021/03/15 10:53:09;;;;;;;1.05;0.30;;;20.60;41.50;;;;;;5079266;28;20063;-55
2021/03/15 10:55:35;;;;;;;2.17;0.30;;;20.60;41.50;;;;;;5086107;28;20059;-55
2021/03/15 10:58:12;;;;;;;0.68;0.60;;;20.60;41.40;;;;;;5073407;28;20481;-52
2021/03/15 11:00:46;;;;;;;0.30;0.30;;;20.70;41.60;;;;;;5071382;28;20048;-56
2021/03/15 11:03:23;;;;;;;0.63;0.40;;;20.70;41.50;;;;;;5076588;28;20503;-53
2021/03/15 11:06:14;;;;;;;0.35;0.20;;;20.60;41.50;;;;;;5074703;28;20033;-54
2021/03/15 11:08:41;;;;;;;0.50;0.30;;;20.70;41.60;;;;;;5072612;28;20090;-53
2021/03/15 11:11:24;;;;;;;0.40;0.40;;;20.70;41.50;;;;;;5081934;28;20036;-52
2021/03/15 11:13:52;;;;;;;0.70;0.40;;;20.70;41.50;;;;;;5077539;28;20032;-55
2021/03/15 11:16:21;;;;;;;0.60;0.40;;;20.70;41.50;;;;;;5074323;28;20119;-57
2021/03/15 11:19:08;;;;;;;0.80;0.20;;;20.70;41.70;;;;;;5086020;28;20478;-53
2021/03/15 11:21:37;;;;;;;0.55;0.38;;;20.70;42.00;;;;;;5071292;28;20056;-51
2021/03/15 11:24:04;;;;;;;0.40;0.30;;;20.80;42.30;;;;;;5075747;28;20530;-53
2021/03/15 11:27:03;;;;;;;5.68;0.45;;;20.90;42.30;;;;;;5075911;28;20028;-58
2021/03/15 11:29:41;;;;;;;4.10;1.20;;;20.90;43.10;;;;;;5079960;28;20036;-60
2021/03/15 11:32:12;;;;;;;2.42;0.40;;;21.00;43.10;;;;;;5079595;28;20039;-61
2021/03/15 11:34:50;;;;;;;0.20;0.20;;;21.00;43.30;;;;;;5075333;28;20024;-59
2021/03/15 11:37:26;;;;;;;4.43;0.50;;;21.10;43.30;;;;;;5073369;28;20451;-56
2021/03/15 11:39:52;;;;;;;1.05;0.40;;;21.10;43.40;;;;;;5083724;28;20032;-58
2021/03/15 11:42:31;;;;;;;1.42;0.35;;;21.10;43.50;;;;;;5081659;28;20119;-54
2021/03/15 11:44:57;;;;;;;1.45;0.45;;;21.10;43.80;;;;;;5087591;28;20139;-58
2021/03/15 11:47:22;;;;;;;2.60;0.40;;;21.00;43.60;;;;;;5072028;28;20024;-54
2021/03/15 11:49:48;;;;;;;0.30;0.30;;;21.10;43.90;;;;;;5082901;28;20469;-58
2021/03/15 11:52:27;;;;;;;1.58;0.50;;;21.00;43.80;;;;;;5079131;28;20043;-57
2021/03/15 11:54:53;;;;;;;0.47;0.32;;;21.00;43.70;;;;;;5076322;28;20028;-60
2021/03/15 11:57:20;;;;;;;2.60;1.38;;;21.00;43.80;;;;;;5083245;28;20153;-57
2021/03/15 11:59:46;;;;;;;0.70;0.43;;;21.00;43.80;;;;;;5083602;28;20045;-58
2021/03/15 12:02:12;;;;;;;1.63;0.55;;;21.00;43.80;;;;;;5087511;28;20028;-58
2021/03/15 12:04:38;;;;;;;1.58;0.40;;;21.00;43.90;;;;;;5086848;28;20040;-56
2021/03/15 12:07:04;;;;;;;0.75;0.43;;;21.00;43.90;;;;;;5080266;28;20032;-57
2021/03/15 12:09:30;;;;;;;2.58;0.30;;;21.00;43.80;;;;;;5071714;28;20033;-59
2021/03/15 12:11:56;;;;;;;1.63;0.40;;;21.00;43.90;;;;;;5086553;28;20031;-57
2021/03/15 12:14:22;;;;;;;0.45;0.13;;;21.00;44.00;;;;;;5080265;28;20053;-61
2021/03/15 12:16:48;;;;;;;0.80;0.40;;;21.00;44.00;;;;;;5071689;28;20036;-59
2021/03/15 12:19:14;;;;;;;0.30;0.30;;;21.00;44.00;;;;;;5072092;28;20067;-59
2021/03/15 12:21:40;;;;;;;0.82;0.30;;;21.00;44.00;;;;;;5084252;28;20028;-56
2021/03/15 12:24:06;;;;;;;0.60;0.30;;;21.00;43.90;;;;;;5074427;28;20024;-57
2021/03/15 12:26:32;;;;;;;1.10;0.30;;;21.00;43.90;;;;;;5083906;28;20036;-58
2021/03/15 12:28:58;;;;;;;0.52;0.32;;;21.00;44.00;;;;;;5081222;28;20032;-55
2021/03/15 12:31:24;;;;;;;3.88;0.82;;;21.10;44.00;;;;;;5080396;28;20039;-56
2021/03/15 12:33:49;;;;;;;0.57;0.30;;;21.10;44.00;;;;;;5087783;28;20036;-58
2021/03/15 12:36:16;;;;;;;0.50;0.45;;;21.00;43.90;;;;;;5088494;28;20032;-57
2021/03/15 12:38:42;;;;;;;0.90;0.50;;;21.00;44.00;;;;;;5081243;28;20028;-56
2021/03/15 12:41:08;;;;;;;1.33;0.32;;;21.00;44.00;;;;;;5072750;28;20047;-59
2021/03/15 12:43:34;;;;;;;1.38;0.43;;;21.00;44.10;;;;;;5083079;28;20227;-57
2021/03/15 12:45:59;;;;;;;0.60;0.30;;;21.10;44.20;;;;;;5080423;28;20526;-57
2021/03/15 12:48:25;;;;;;;6.80;1.40;;;21.00;44.10;;;;;;5085899;28;20020;-55
2021/03/15 12:50:50;;;;;;;0.50;0.30;;;21.10;44.10;;;;;;5085855;28;20024;-56
2021/03/15 12:53:16;;;;;;;0.88;0.40;;;21.20;44.00;;;;;;5087702;28;20036;-58
2021/03/15 12:55:42;;;;;;;1.42;0.30;;;21.20;43.80;;;;;;5081629;28;20028;-58
2021/03/15 12:58:08;;;;;;;0.30;0.20;;;21.20;43.90;;;;;;5085000;28;20036;-56
2021/03/15 13:00:33;;;;;;;1.67;0.65;;;21.10;43.90;;;;;;5083103;28;20464;-59
2021/03/15 13:02:59;;;;;;;0.73;0.30;;;21.10;44.00;;;;;;5084347;28;20057;-58